Time;durP1;ratioP1;P1;durP2;ratioP2;P2;SDS_P1;SDS_P2;PMS_P1;PMS_P2;Temp;Humidity;BMP_temperature;BMP_pressure;BME280_temperature;BME280_humidity;BME280_pressure;Samples;Min_cycle;Max_cycle;Signal;HPM_P1;HPM_P2
2022/06/16 00:02:24;;;;;;;0.00;0.00;;;;;;;;;;5038164;28;20131;-83
2022/06/16 00:04:50;;;;;;;0.00;0.00;;;;;;;;;;5037640;28;20128;-84
2022/06/16 00:07:16;;;;;;;0.00;0.00;;;;;;;;;;5037806;28;20048;-84
2022/06/16 00:09:42;;;;;;;0.00;0.00;;;;;;;;;;5037519;28;20082;-84
2022/06/16 00:12:09;;;;;;;0.00;0.00;;;;;;;;;;5037847;28;20128;-84
2022/06/16 00:14:35;;;;;;;0.00;0.00;;;;;;;;;;5037347;28;20527;-84
2022/06/16 00:17:01;;;;;;;0.00;0.00;;;;;;;;;;5037660;28;20128;-84
2022/06/16 00:19:27;;;;;;;0.00;0.00;;;;;;;;;;5020948;28;20041;-84
2022/06/16 00:21:53;;;;;;;0.00;0.00;;;;;;;;;;5021289;28;20055;-84
2022/06/16 00:24:20;;;;;;;0.00;0.00;;;;;;;;;;5037191;28;20577;-84
2022/06/16 00:26:46;;;;;;;0.00;0.00;;;;;;;;;;5020925;28;20094;-83
2022/06/16 00:29:12;;;;;;;0.00;0.00;;;;;;;;;;5021005;28;20045;-83
2022/06/16 00:31:38;;;;;;;0.00;0.00;;;;;;;;;;5036616;28;20128;-84
2022/06/16 00:34:04;;;;;;;0.00;0.00;;;;;;;;;;5037405;28;20045;-84
2022/06/16 00:36:30;;;;;;;0.00;0.00;;;;;;;;;;5037061;28;20400;-83
2022/06/16 00:38:56;;;;;;;0.00;0.00;;;;;;;;;;5037234;28;20060;-84
2022/06/16 00:41:22;;;;;;;0.00;0.00;;;;;;;;;;5037343;28;20128;-84
2022/06/16 00:43:48;;;;;;;0.00;0.00;;;;;;;;;;5037235;28;20329;-84
2022/06/16 00:46:15;;;;;;;0.00;0.00;;;;;;;;;;5036979;28;20041;-84
2022/06/16 00:48:44;;;;;;;0.00;0.00;;;;;;;;;;5037109;28;20037;-84
2022/06/16 00:51:17;;;;;;;0.00;0.00;;;;;;;;;;5036740;28;20044;-84
2022/06/16 00:53:44;;;;;;;0.00;0.00;;;;;;;;;;5020357;28;20563;-84
2022/06/16 00:56:12;;;;;;;0.00;0.00;;;;;;;;;;5036679;28;20473;-84
2022/06/16 00:58:40;;;;;;;0.95;0.00;;;;;;;;;;5020508;28;20049;-84
2022/06/16 01:01:07;;;;;;;0.00;0.00;;;;;;;;;;5036593;28;20037;-84
2022/06/16 01:06:25;;;;;;;0.00;0.00;;;;;;;;;;5036590;28;20045;-84
2022/06/16 01:08:54;;;;;;;0.00;0.00;;;;;;;;;;5036679;28;20041;-84
2022/06/16 01:14:22;;;;;;;0.00;0.00;;;;;;;;;;4999907;28;20045;-83
2022/06/16 01:16:49;;;;;;;0.00;0.00;;;;;;;;;;5036321;28;20076;-84
2022/06/16 01:19:15;;;;;;;0.00;0.00;;;;;;;;;;5036543;28;20040;-84
2022/06/16 01:21:45;;;;;;;0.00;0.00;;;;;;;;;;5036554;28;20120;-84
2022/06/16 01:24:11;;;;;;;0.00;0.00;;;;;;;;;;5019879;28;20041;-84
2022/06/16 01:26:37;;;;;;;0.00;0.00;;;;;;;;;;5036161;28;20150;-84
2022/06/16 01:29:13;;;;;;;0.00;0.00;;;;;;;;;;5036702;28;20055;-84
2022/06/16 01:31:39;;;;;;;;;;;;;;;;;;5036437;28;20041;-84
2022/06/16 01:34:11;;;;;;;0.00;0.00;;;;;;;;;;5036189;28;20326;-85
2022/06/16 01:36:40;;;;;;;0.00;0.00;;;;;;;;;;5019580;28;20048;-84
2022/06/16 01:39:09;;;;;;;0.00;0.00;;;;;;;;;;5036354;28;20048;-84
2022/06/16 01:41:44;;;;;;;0.00;0.00;;;;;;;;;;5036152;28;20495;-84
2022/06/16 01:44:24;;;;;;;0.00;0.00;;;;;;;;;;5035879;28;20040;-83
2022/06/16 01:46:53;;;;;;;0.00;0.00;;;;;;;;;;5035780;28;20041;-84
2022/06/16 01:49:20;;;;;;;0.00;0.00;;;;;;;;;;5035868;28;20040;-84
2022/06/16 01:51:52;;;;;;;0.00;0.00;;;;;;;;;;5035671;28;20412;-84
2022/06/16 01:54:22;;;;;;;0.00;0.00;;;;;;;;;;5035752;28;20045;-84
2022/06/16 01:57:08;;;;;;;0.00;0.00;;;;;;;;;;5035622;28;20041;-84
2022/06/16 01:59:52;;;;;;;0.00;0.00;;;;;;;;;;5019749;28;20079;-84
2022/06/16 02:02:19;;;;;;;0.00;0.00;;;;;;;;;;5035522;28;20201;-84
2022/06/16 02:04:54;;;;;;;0.00;0.00;;;;;;;;;;5035547;28;20087;-83
2022/06/16 02:07:30;;;;;;;0.00;0.00;;;;;;;;;;5035628;28;20147;-84
2022/06/16 02:09:58;;;;;;;0.00;0.00;;;;;;;;;;5035742;28;20056;-84
2022/06/16 02:15:17;;;;;;;0.00;0.00;;;;;;;;;;5035046;28;20068;-84
2022/06/16 02:17:43;;;;;;;0.00;0.00;;;;;;;;;;5035530;28;20040;-84
2022/06/16 02:20:09;;;;;;;0.00;0.00;;;;;;;;;;5018663;28;20037;-83
2022/06/16 02:22:35;;;;;;;0.30;0.20;;;;;;;;;;5035350;28;20033;-84
2022/06/16 02:25:01;;;;;;;0.00;0.00;;;;;;;;;;5035468;28;20135;-84
2022/06/16 02:27:27;;;;;;;0.00;0.00;;;;;;;;;;5035067;28;20079;-84
2022/06/16 02:29:53;;;;;;;0.00;0.00;;;;;;;;;;5018747;28;20461;-84
2022/06/16 02:32:27;;;;;;;0.00;0.00;;;;;;;;;;5035087;28;20041;-84
2022/06/16 02:35:08;;;;;;;0.00;0.00;;;;;;;;;;5035025;28;20044;-84
2022/06/16 02:37:43;;;;;;;0.00;0.00;;;;;;;;;;5035096;28;20460;-84
2022/06/16 02:40:12;;;;;;;0.00;0.00;;;;;;;;;;5035165;28;20052;-84
2022/06/16 02:42:51;;;;;;;0.00;0.00;;;;;;;;;;5035262;28;20040;-84
2022/06/16 02:45:23;;;;;;;0.00;0.00;;;;;;;;;;5034949;28;20072;-84
2022/06/16 02:48:00;;;;;;;0.00;0.00;;;;;;;;;;5034852;28;20045;-83
2022/06/16 02:50:45;;;;;;;0.00;0.00;;;;;;;;;;5034921;28;20052;-82
2022/06/16 02:53:55;;;;;;;0.00;0.00;;;;;;;;;;5034893;28;20038;-84
2022/06/16 02:56:19;;;;;;;0.00;0.00;;;;;;;;;;5033490;28;20080;-84
2022/06/16 02:58:48;;;;;;;0.00;0.00;;;;;;;;;;5035149;28;20033;-84
2022/06/16 03:01:14;;;;;;;0.00;0.00;;;;;;;;;;5034945;28;20037;-84
2022/06/16 03:03:40;;;;;;;0.00;0.00;;;;;;;;;;5018724;28;20185;-84
2022/06/16 03:06:06;;;;;;;0.00;0.00;;;;;;;;;;5034770;28;20055;-84
2022/06/16 03:08:36;;;;;;;0.00;0.00;;;;;;;;;;5034883;28;20554;-84
2022/06/16 03:11:02;;;;;;;0.00;0.00;;;;;;;;;;5034935;28;20483;-84
2022/06/16 03:13:29;;;;;;;0.00;0.00;;;;;;;;;;5034665;28;20041;-84
2022/06/16 03:15:56;;;;;;;0.00;0.00;;;;;;;;;;5034295;28;20056;-84
2022/06/16 03:18:22;;;;;;;0.00;0.00;;;;;;;;;;5034776;28;20067;-84
2022/06/16 03:20:49;;;;;;;0.00;0.00;;;;;;;;;;5034485;28;20041;-84
2022/06/16 03:23:15;;;;;;;0.00;0.00;;;;;;;;;;5034540;28;20453;-84
2022/06/16 03:25:41;;;;;;;0.00;0.00;;;;;;;;;;5034481;28;20083;-84
2022/06/16 03:28:08;;;;;;;0.00;0.00;;;;;;;;;;5017812;28;20403;-84
2022/06/16 03:30:35;;;;;;;0.00;0.00;;;;;;;;;;5034535;28;20513;-84
2022/06/16 03:33:01;;;;;;;0.00;0.00;;;;;;;;;;5034335;28;20484;-84
2022/06/16 03:35:28;;;;;;;0.00;0.00;;;;;;;;;;5034394;28;20072;-85
2022/06/16 03:37:54;;;;;;;0.00;0.00;;;;;;;;;;5034208;28;20047;-84
2022/06/16 03:40:20;;;;;;;0.00;0.00;;;;;;;;;;5018082;28;20120;-84
2022/06/16 03:42:50;;;;;;;0.00;0.00;;;;;;;;;;5034250;28;20057;-84
2022/06/16 03:45:16;;;;;;;0.00;0.00;;;;;;;;;;5034288;28;20049;-84
2022/06/16 03:47:42;;;;;;;0.00;0.00;;;;;;;;;;5017886;28;20044;-84
2022/06/16 03:50:11;;;;;;;0.00;0.00;;;;;;;;;;5034436;28;20048;-85
2022/06/16 03:52:37;;;;;;;0.00;0.00;;;;;;;;;;5034011;28;20044;-84
2022/06/16 03:55:03;;;;;;;0.00;0.00;;;;;;;;;;5034214;28;20380;-84
2022/06/16 03:57:29;;;;;;;0.00;0.00;;;;;;;;;;5034173;28;20037;-84
2022/06/16 03:59:55;;;;;;;0.00;0.00;;;;;;;;;;5017781;28;20040;-85
2022/06/16 04:02:21;;;;;;;0.00;0.00;;;;;;;;;;5034122;28;20116;-84
2022/06/16 04:04:47;;;;;;;0.00;0.00;;;;;;;;;;5034469;28;20460;-84
2022/06/16 04:07:13;;;;;;;0.00;0.00;;;;;;;;;;5018763;28;20119;-84
2022/06/16 04:09:39;;;;;;;0.00;0.00;;;;;;;;;;5037924;28;20037;-84
2022/06/16 04:12:05;;;;;;;0.00;0.00;;;;;;;;;;5037583;28;20093;-84
2022/06/16 04:14:32;;;;;;;0.00;0.00;;;;;;;;;;5037476;28;20057;-83
2022/06/16 04:16:58;;;;;;;0.00;0.00;;;;;;;;;;5037568;28;20174;-84
2022/06/16 04:19:25;;;;;;;0.00;0.00;;;;;;;;;;5037716;28;20116;-84
2022/06/16 04:21:53;;;;;;;0.00;0.00;;;;;;;;;;5037652;28;20128;-84
2022/06/16 04:24:19;;;;;;;0.00;0.00;;;;;;;;;;5021134;28;20039;-84
2022/06/16 04:26:47;;;;;;;0.00;0.00;;;;;;;;;;5037185;28;20099;-84
2022/06/16 04:29:13;;;;;;;0.00;0.00;;;;;;;;;;5020988;28;20461;-84
2022/06/16 04:31:39;;;;;;;0.00;0.00;;;;;;;;;;5037374;28;20076;-84
2022/06/16 04:34:05;;;;;;;0.00;0.00;;;;;;;;;;5037396;28;20041;-83
2022/06/16 04:36:32;;;;;;;0.00;0.00;;;;;;;;;;5037142;28;20048;-83
2022/06/16 04:38:58;;;;;;;0.00;0.00;;;;;;;;;;5037314;28;20215;-84
2022/06/16 04:41:24;;;;;;;0.00;0.00;;;;;;;;;;5020781;28;20033;-84
2022/06/16 04:43:50;;;;;;;0.00;0.00;;;;;;;;;;5036909;28;20357;-84
2022/06/16 04:46:17;;;;;;;0.00;0.00;;;;;;;;;;5037237;28;20512;-84
2022/06/16 04:48:44;;;;;;;0.00;0.00;;;;;;;;;;5036748;28;20040;-84
2022/06/16 04:51:10;;;;;;;0.00;0.00;;;;;;;;;;5020810;28;20056;-84
2022/06/16 04:53:36;;;;;;;0.10;0.00;;;;;;;;;;5020214;28;20509;-84
2022/06/16 04:56:04;;;;;;;0.00;0.00;;;;;;;;;;5036879;28;20033;-84
2022/06/16 04:58:30;;;;;;;0.00;0.00;;;;;;;;;;5036859;28;20348;-84
2022/06/16 05:00:57;;;;;;;0.00;0.00;;;;;;;;;;5037039;28;20045;-84
2022/06/16 05:03:25;;;;;;;0.00;0.00;;;;;;;;;;5036600;28;20044;-84
2022/06/16 05:05:52;;;;;;;0.00;0.00;;;;;;;;;;5036745;28;20040;-84
2022/06/16 05:08:19;;;;;;;0.00;0.00;;;;;;;;;;5020046;28;20361;-84
2022/06/16 05:10:48;;;;;;;0.00;0.00;;;;;;;;;;5036838;28;20122;-84
2022/06/16 05:13:15;;;;;;;0.00;0.00;;;;;;;;;;5036655;28;20476;-84
2022/06/16 05:15:41;;;;;;;0.00;0.00;;;;;;;;;;5054052;28;20088;-85
2022/06/16 05:18:07;;;;;;;0.00;0.00;;;;;;;;;;5053930;28;20095;-84
2022/06/16 05:20:34;;;;;;;0.00;0.00;;;;;;;;;;5036476;28;20111;-85
2022/06/16 05:23:00;;;;;;;0.00;0.00;;;;;;;;;;5036290;28;20040;-85
2022/06/16 05:25:26;;;;;;;0.00;0.00;;;;;;;;;;5036380;28;20128;-84
2022/06/16 05:27:52;;;;;;;0.00;0.00;;;;;;;;;;5036150;28;20076;-84
2022/06/16 05:30:18;;;;;;;0.00;0.00;;;;;;;;;;5036349;28;20045;-83
2022/06/16 05:32:44;;;;;;;0.00;0.00;;;;;;;;;;5019492;28;20097;-84
2022/06/16 05:35:11;;;;;;;0.00;0.00;;;;;;;;;;5036272;28;20041;-84
2022/06/16 05:37:37;;;;;;;0.00;0.00;;;;;;;;;;5036310;28;20090;-84
2022/06/16 05:40:03;;;;;;;0.00;0.00;;;;;;;;;;5019609;28;20472;-84
2022/06/16 05:42:29;;;;;;;0.00;0.00;;;;;;;;;;5019453;28;20045;-84
2022/06/16 05:44:56;;;;;;;0.00;0.00;;;;;;;;;;5035911;28;20060;-84
2022/06/16 05:47:22;;;;;;;0.00;0.00;;;;;;;;;;5035795;28;20091;-85
2022/06/16 05:49:48;;;;;;;0.00;0.00;;;;;;;;;;5036102;28;20076;-84
2022/06/16 05:52:15;;;;;;;0.00;0.00;;;;;;;;;;5019400;28;20043;-83
2022/06/16 05:54:42;;;;;;;0.00;0.00;;;;;;;;;;5019403;28;20033;-84
2022/06/16 05:57:08;;;;;;;0.00;0.00;;;;;;;;;;5035902;28;20056;-84
2022/06/16 05:59:35;;;;;;;0.00;0.00;;;;;;;;;;5019298;28;20087;-83
2022/06/16 06:02:01;;;;;;;0.00;0.00;;;;;;;;;;5019560;28;20387;-84
2022/06/16 06:04:27;;;;;;;0.00;0.00;;;;;;;;;;5035342;28;20077;-84
2022/06/16 06:06:54;;;;;;;0.10;0.10;;;;;;;;;;5035593;28;20044;-85
2022/06/16 06:17:36;;;;;;;0.00;0.00;;;;;;;;;;5032045;28;20045;-84
2022/06/16 06:20:02;;;;;;;0.00;0.00;;;;;;;;;;5032067;28;20124;-85
2022/06/16 06:22:28;;;;;;;0.00;0.00;;;;;;;;;;5032197;28;20041;-84
2022/06/16 06:25:00;;;;;;;0.00;0.00;;;;;;;;;;5031796;28;20492;-84
2022/06/16 06:27:42;;;;;;;0.00;0.00;;;;;;;;;;5032028;28;20051;-85
2022/06/16 06:30:17;;;;;;;0.00;0.00;;;;;;;;;;5031231;28;20073;-84
2022/06/16 06:32:44;;;;;;;0.00;0.00;;;;;;;;;;5031631;28;20044;-84
2022/06/16 06:35:10;;;;;;;0.00;0.00;;;;;;;;;;5031520;28;20037;-84
2022/06/16 06:37:36;;;;;;;0.00;0.00;;;;;;;;;;5031738;28;20091;-84
2022/06/16 06:40:03;;;;;;;0.00;0.00;;;;;;;;;;5031789;28;20081;-84
2022/06/16 06:42:29;;;;;;;0.00;0.00;;;;;;;;;;5031904;28;20041;-85
2022/06/16 06:44:55;;;;;;;0.00;0.00;;;;;;;;;;5031406;28;20092;-85
2022/06/16 06:47:22;;;;;;;0.00;0.00;;;;;;;;;;5031732;28;20045;-85
2022/06/16 06:49:48;;;;;;;0.00;0.00;;;;;;;;;;5031469;28;20090;-85
2022/06/16 06:52:15;;;;;;;0.00;0.00;;;;;;;;;;5015462;28;20037;-84
2022/06/16 06:54:43;;;;;;;0.00;0.00;;;;;;;;;;5031388;28;20037;-85
2022/06/16 06:57:10;;;;;;;0.00;0.00;;;;;;;;;;5031620;28;20053;-84
2022/06/16 06:59:36;;;;;;;0.00;0.00;;;;;;;;;;5031294;28;20489;-83
2022/06/16 07:02:02;;;;;;;0.00;0.00;;;;;;;;;;5031510;28;20045;-84
2022/06/16 07:04:28;;;;;;;0.00;0.00;;;;;;;;;;5014795;28;20037;-84
2022/06/16 07:06:54;;;;;;;0.00;0.00;;;;;;;;;;5031762;28;20033;-84
2022/06/16 07:09:20;;;;;;;0.00;0.00;;;;;;;;;;5031340;28;20083;-84
2022/06/16 07:11:46;;;;;;;0.00;0.00;;;;;;;;;;5015232;28;20124;-84
2022/06/16 07:14:13;;;;;;;0.00;0.00;;;;;;;;;;5034126;28;20503;-85
2022/06/16 07:16:39;;;;;;;0.00;0.00;;;;;;;;;;5034619;28;20041;-85
2022/06/16 07:19:06;;;;;;;0.00;0.00;;;;;;;;;;5034502;28;20124;-85
2022/06/16 07:21:32;;;;;;;0.00;0.00;;;;;;;;;;5018249;28;20040;-84
2022/06/16 07:23:58;;;;;;;0.00;0.00;;;;;;;;;;5016594;28;20049;-84
2022/06/16 07:26:25;;;;;;;0.00;0.00;;;;;;;;;;5014862;28;20041;-85
2022/06/16 07:28:51;;;;;;;0.00;0.00;;;;;;;;;;4997758;28;20045;-84
2022/06/16 07:31:17;;;;;;;0.00;0.00;;;;;;;;;;5014049;28;20041;-84
2022/06/16 07:33:43;;;;;;;0.00;0.00;;;;;;;;;;4997911;28;20073;-85
2022/06/16 07:36:10;;;;;;;0.00;0.00;;;;;;;;;;5014248;28;20052;-84
2022/06/16 07:38:36;;;;;;;0.00;0.00;;;;;;;;;;5014118;28;20051;-84
2022/06/16 07:43:47;;;;;;;0.00;0.00;;;;;;;;;;5017900;28;20042;-85
2022/06/16 07:46:13;;;;;;;0.00;0.00;;;;;;;;;;5001854;28;20394;-85
2022/06/16 07:48:39;;;;;;;0.00;0.00;;;;;;;;;;5018005;28;20042;-85
2022/06/16 07:51:05;;;;;;;0.00;0.00;;;;;;;;;;5017830;28;20415;-85
2022/06/16 07:53:31;;;;;;;0.00;0.00;;;;;;;;;;5018216;28;20045;-85
2022/06/16 07:55:57;;;;;;;0.00;0.00;;;;;;;;;;5017689;28;20064;-84
2022/06/16 07:58:29;;;;;;;0.00;0.00;;;;;;;;;;5017967;28;20485;-83
2022/06/16 08:00:55;;;;;;;0.00;0.00;;;;;;;;;;5001729;28;20076;-81
2022/06/16 08:03:26;;;;;;;0.00;0.00;;;;;;;;;;5018382;28;20076;-85
2022/06/16 08:05:52;;;;;;;0.28;0.10;;;;;;;;;;5035890;28;20263;-83
2022/06/16 08:08:22;;;;;;;0.00;0.00;;;;;;;;;;5018165;28;20102;-84
2022/06/16 08:10:47;;;;;;;0.00;0.00;;;;;;;;;;5001802;28;20083;-84
2022/06/16 08:13:13;;;;;;;0.00;0.00;;;;;;;;;;5018037;28;20076;-85
2022/06/16 08:15:42;;;;;;;0.00;0.00;;;;;;;;;;5017502;28;20049;-84
2022/06/16 08:18:10;;;;;;;0.00;0.00;;;;;;;;;;5017868;28;20048;-84
2022/06/16 08:20:36;;;;;;;0.13;0.00;;;;;;;;;;5017638;28;20075;-86
2022/06/16 08:23:02;;;;;;;0.00;0.00;;;;;;;;;;5018153;28;20124;-85
2022/06/16 08:25:30;;;;;;;0.00;0.00;;;;;;;;;;5017426;28;20533;-85
2022/06/16 08:27:55;;;;;;;0.00;0.00;;;;;;;;;;5017783;28;20050;-86
2022/06/16 08:30:23;;;;;;;0.00;0.00;;;;;;;;;;5017438;28;20045;-85
2022/06/16 08:32:49;;;;;;;0.00;0.00;;;;;;;;;;5001454;28;20473;-85
2022/06/16 08:35:15;;;;;;;0.00;0.00;;;;;;;;;;5017307;28;20045;-84
2022/06/16 08:37:41;;;;;;;0.00;0.00;;;;;;;;;;5017553;28;20041;-84
2022/06/16 08:40:08;;;;;;;0.00;0.00;;;;;;;;;;5017347;28;20113;-84
2022/06/16 08:42:38;;;;;;;0.00;0.00;;;;;;;;;;5017735;28;20472;-85
2022/06/16 08:45:19;;;;;;;0.00;0.00;;;;;;;;;;5017165;28;20068;-84
2022/06/16 08:47:51;;;;;;;0.00;0.00;;;;;;;;;;5017773;28;20044;-84
2022/06/16 08:50:33;;;;;;;0.00;0.00;;;;;;;;;;5000899;28;20083;-84
2022/06/16 08:53:29;;;;;;;0.00;0.00;;;;;;;;;;5016676;28;20045;-84
2022/06/16 08:55:57;;;;;;;0.00;0.00;;;;;;;;;;5004554;28;20046;-85
2022/06/16 08:58:26;;;;;;;0.00;0.00;;;;;;;;;;5017165;28;20045;-84
2022/06/16 09:00:59;;;;;;;0.00;0.00;;;;;;;;;;5016993;28;20041;-84
2022/06/16 09:03:40;;;;;;;0.00;0.00;;;;;;;;;;5017245;28;20152;-85
2022/06/16 09:06:12;;;;;;;0.00;0.00;;;;;;;;;;5016791;28;20125;-84
2022/06/16 09:08:51;;;;;;;0.00;0.00;;;;;;;;;;5017298;28;20129;-83
2022/06/16 09:11:25;;;;;;;0.00;0.00;;;;;;;;;;5034455;28;20116;-83
2022/06/16 09:14:01;;;;;;;0.00;0.00;;;;;;;;;;5016998;28;20205;-84
2022/06/16 09:16:36;;;;;;;0.00;0.00;;;;;;;;;;5010014;28;20054;-84
2022/06/16 09:19:02;;;;;;;0.00;0.00;;;;;;;;;;5033470;28;20120;-83
2022/06/16 09:21:38;;;;;;;0.00;0.00;;;;;;;;;;5033197;28;20069;-84
2022/06/16 09:24:10;;;;;;;0.00;0.00;;;;;;;;;;5016684;28;20124;-83
2022/06/16 09:26:46;;;;;;;0.00;0.00;;;;;;;;;;5032809;28;20493;-84
2022/06/16 09:29:12;;;;;;;0.00;0.00;;;;;;;;;;5033029;28;20048;-84
2022/06/16 09:31:57;;;;;;;0.00;0.00;;;;;;;;;;5016277;28;20049;-84
2022/06/16 09:34:27;;;;;;;0.00;0.00;;;;;;;;;;5032988;28;20083;-84
2022/06/16 09:36:56;;;;;;;0.00;0.00;;;;;;;;;;5032769;28;20084;-85
2022/06/16 09:39:25;;;;;;;0.00;0.00;;;;;;;;;;5032956;28;20056;-84
2022/06/16 09:44:46;;;;;;;0.00;0.00;;;;;;;;;;5032515;28;20043;-85
2022/06/16 09:47:15;;;;;;;0.00;0.00;;;;;;;;;;5032862;28;20077;-84
2022/06/16 09:49:44;;;;;;;0.00;0.00;;;;;;;;;;5032680;28;20045;-84
2022/06/16 09:52:14;;;;;;;0.00;0.00;;;;;;;;;;5032600;28;20124;-84
2022/06/16 09:54:44;;;;;;;0.00;0.00;;;;;;;;;;5032364;28;20475;-83
2022/06/16 09:57:20;;;;;;;0.00;0.00;;;;;;;;;;5032393;28;20045;-83
2022/06/16 10:00:09;;;;;;;0.00;0.00;;;;;;;;;;5032628;28;20408;-84
2022/06/16 10:02:41;;;;;;;0.00;0.00;;;;;;;;;;5022491;28;20057;-84
2022/06/16 10:05:15;;;;;;;0.00;0.00;;;;;;;;;;5014679;28;20056;-84
2022/06/16 10:07:46;;;;;;;0.00;0.00;;;;;;;;;;5032355;28;20045;-84
2022/06/16 10:10:18;;;;;;;0.00;0.00;;;;;;;;;;5031461;28;20056;-83
2022/06/16 10:12:53;;;;;;;0.00;0.00;;;;;;;;;;5032398;28;20099;-84
2022/06/16 10:15:22;;;;;;;0.00;0.00;;;;;;;;;;5031762;28;20476;-84
2022/06/16 10:17:50;;;;;;;0.00;0.00;;;;;;;;;;5032401;28;20033;-84
2022/06/16 10:20:17;;;;;;;0.00;0.00;;;;;;;;;;5031996;28;20037;-85
2022/06/16 10:22:48;;;;;;;0.00;0.00;;;;;;;;;;5032029;28;20075;-84
2022/06/16 10:25:15;;;;;;;0.00;0.00;;;;;;;;;;5031824;28;20504;-85
2022/06/16 10:27:48;;;;;;;0.00;0.00;;;;;;;;;;5031931;28;20052;-84
2022/06/16 10:30:22;;;;;;;0.00;0.00;;;;;;;;;;5032015;28;20053;-85
2022/06/16 10:32:57;;;;;;;0.00;0.00;;;;;;;;;;5032005;28;20408;-86
2022/06/16 10:35:23;;;;;;;;;;;;;;;;;;5032337;28;20131;-84
2022/06/16 10:37:51;;;;;;;0.00;0.00;;;;;;;;;;5031909;28;20379;-83
2022/06/16 10:40:21;;;;;;;0.00;0.00;;;;;;;;;;5032923;28;20385;-83
2022/06/16 10:42:49;;;;;;;0.00;0.00;;;;;;;;;;5015399;28;20045;-84
2022/06/16 10:45:21;;;;;;;0.00;0.00;;;;;;;;;;5031441;28;20084;-84
2022/06/16 10:47:52;;;;;;;0.00;0.00;;;;;;;;;;5031779;28;20103;-85
2022/06/16 10:50:23;;;;;;;0.00;0.00;;;;;;;;;;5031747;28;20051;-84
2022/06/16 10:52:52;;;;;;;0.00;0.00;;;;;;;;;;5015556;28;20477;-84
2022/06/16 10:55:21;;;;;;;0.00;0.00;;;;;;;;;;5031587;28;20137;-84
2022/06/16 10:57:49;;;;;;;0.00;0.00;;;;;;;;;;5031619;28;20387;-84
2022/06/16 11:00:20;;;;;;;0.00;0.00;;;;;;;;;;5031631;28;20129;-84
2022/06/16 11:02:55;;;;;;;0.00;0.00;;;;;;;;;;5030481;28;20048;-83
2022/06/16 11:05:22;;;;;;;0.00;0.00;;;;;;;;;;5031307;28;20124;-83
2022/06/16 11:07:48;;;;;;;0.00;0.00;;;;;;;;;;5031387;28;20045;-84
2022/06/16 11:10:28;;;;;;;0.00;0.00;;;;;;;;;;5031735;28;20099;-83
2022/06/16 11:12:54;;;;;;;0.00;0.00;;;;;;;;;;5031428;28;20124;-83
2022/06/16 11:15:26;;;;;;;0.00;0.00;;;;;;;;;;5031069;28;20141;-83
2022/06/16 11:17:55;;;;;;;0.00;0.00;;;;;;;;;;5035618;28;20104;-83
2022/06/16 11:20:21;;;;;;;0.00;0.00;;;;;;;;;;5036658;28;20124;-83
2022/06/16 11:22:49;;;;;;;0.00;0.00;;;;;;;;;;5035186;28;20128;-82
2022/06/16 11:25:23;;;;;;;0.00;0.00;;;;;;;;;;5035616;28;20053;-83
2022/06/16 11:27:51;;;;;;;0.00;0.00;;;;;;;;;;5034356;28;20075;-84
2022/06/16 11:30:37;;;;;;;0.03;0.00;;;;;;;;;;5035621;28;20045;-84
2022/06/16 11:33:04;;;;;;;0.00;0.00;;;;;;;;;;5005336;28;20660;-84
2022/06/16 11:35:38;;;;;;;0.00;0.00;;;;;;;;;;5034994;28;20048;-85
2022/06/16 11:38:12;;;;;;;0.00;0.00;;;;;;;;;;5036398;28;20381;-84
2022/06/16 11:40:44;;;;;;;0.00;0.00;;;;;;;;;;5035278;28;20120;-84
2022/06/16 11:43:17;;;;;;;0.00;0.00;;;;;;;;;;5041354;28;20392;-85
2022/06/16 11:45:43;;;;;;;0.00;0.00;;;;;;;;;;5035143;28;20041;-85
2022/06/16 11:48:15;;;;;;;0.00;0.00;;;;;;;;;;5017987;28;20095;-85
2022/06/16 11:51:00;;;;;;;0.00;0.00;;;;;;;;;;4999226;28;20386;-85
2022/06/16 11:53:33;;;;;;;0.00;0.00;;;;;;;;;;4998963;28;20049;-84
2022/06/16 11:56:18;;;;;;;0.00;0.00;;;;;;;;;;4982341;28;20053;-87
2022/06/16 11:58:53;;;;;;;0.00;0.00;;;;;;;;;;4982408;28;20050;-86
2022/06/16 12:01:25;;;;;;;0.00;0.00;;;;;;;;;;4982198;28;20037;-86
2022/06/16 12:03:58;;;;;;;0.00;0.00;;;;;;;;;;5010801;28;20048;-86
2022/06/16 12:06:50;;;;;;;0.00;0.00;;;;;;;;;;5017732;28;20046;-86
2022/06/16 12:09:28;;;;;;;0.00;0.00;;;;;;;;;;5018096;28;20045;-88
2022/06/16 12:12:10;;;;;;;0.00;0.00;;;;;;;;;;5017824;28;20052;-87
2022/06/16 12:14:48;;;;;;;0.00;0.00;;;;;;;;;;5017922;28;20053;-88
2022/06/16 12:17:21;;;;;;;0.00;0.00;;;;;;;;;;5001346;28;20485;-86
2022/06/16 12:19:55;;;;;;;0.00;0.00;;;;;;;;;;5019967;28;20120;-92
2022/06/16 12:22:21;;;;;;;0.00;0.00;;;;;;;;;;5018547;28;20099;-90
2022/06/16 12:24:47;;;;;;;0.00;0.00;;;;;;;;;;5001465;28;20041;-89
2022/06/16 12:27:36;;;;;;;0.00;0.00;;;;;;;;;;5016741;28;20048;-90
2022/06/16 12:30:09;;;;;;;0.00;0.00;;;;;;;;;;5005373;28;20049;-90
2022/06/16 12:32:55;;;;;;;0.00;0.00;;;;;;;;;;5018280;28;20045;-89
2022/06/16 12:35:40;;;;;;;0.00;0.00;;;;;;;;;;5018335;28;20053;-90
2022/06/16 12:38:25;;;;;;;0.00;0.00;;;;;;;;;;5002096;28;20455;-91
2022/06/16 12:40:53;;;;;;;0.00;0.00;;;;;;;;;;5018004;28;20205;-90
2022/06/16 12:43:24;;;;;;;0.00;0.00;;;;;;;;;;5018275;28;20071;-89
2022/06/16 12:45:54;;;;;;;0.00;0.00;;;;;;;;;;5001018;28;20041;-89
2022/06/16 12:48:23;;;;;;;0.00;0.00;;;;;;;;;;5001183;28;20053;-88
2022/06/16 12:50:58;;;;;;;0.00;0.00;;;;;;;;;;5017321;28;20524;-86
2022/06/16 12:53:30;;;;;;;0.00;0.00;;;;;;;;;;5034846;28;20554;-85
2022/06/16 12:56:05;;;;;;;0.20;0.00;;;;;;;;;;5025454;28;20030;-92
2022/06/16 12:58:31;;;;;;;;;;;;;;;;;;5035600;28;20065;-86
2022/06/16 13:00:59;;;;;;;0.00;0.00;;;;;;;;;;5017168;28;19956;-86
2022/06/16 13:03:44;;;;;;;0.10;0.00;;;;;;;;;;5017146;28;20033;-87
2022/06/16 13:06:11;;;;;;;0.00;0.00;;;;;;;;;;5017198;28;20072;-86
2022/06/16 13:08:39;;;;;;;0.00;0.00;;;;;;;;;;5016941;28;20354;-88
2022/06/16 13:11:07;;;;;;;0.00;0.00;;;;;;;;;;5016983;28;20045;-88
2022/06/16 13:13:39;;;;;;;0.00;0.00;;;;;;;;;;5016841;28;20087;-89
2022/06/16 13:16:07;;;;;;;0.00;0.00;;;;;;;;;;5016800;28;20054;-86
2022/06/16 13:18:41;;;;;;;0.00;0.00;;;;;;;;;;5000327;28;20048;-87
2022/06/16 13:21:08;;;;;;;0.00;0.00;;;;;;;;;;5017210;28;20508;-91
2022/06/16 13:23:37;;;;;;;0.00;0.00;;;;;;;;;;5002530;28;20037;-96
2022/06/16 13:26:16;;;;;;;0.00;0.00;;;;;;;;;;5019573;28;20084;-92
2022/06/16 13:28:50;;;;;;;0.00;0.00;;;;;;;;;;5020195;28;20061;-90
2022/06/16 13:31:16;;;;;;;0.00;0.00;;;;;;;;;;5001125;28;20130;-91
2022/06/16 13:33:44;;;;;;;0.00;0.00;;;;;;;;;;5000546;28;20084;-86
2022/06/16 13:36:18;;;;;;;0.00;0.00;;;;;;;;;;5000139;28;20072;-89
2022/06/16 13:38:46;;;;;;;0.00;0.00;;;;;;;;;;5015964;28;20080;-86
2022/06/16 13:41:30;;;;;;;0.00;0.00;;;;;;;;;;5016489;28;20053;-87
2022/06/16 13:44:15;;;;;;;0.00;0.00;;;;;;;;;;5016073;28;20497;-86
2022/06/16 13:46:56;;;;;;;0.00;0.00;;;;;;;;;;5016272;28;20428;-88
2022/06/16 13:49:27;;;;;;;0.00;0.00;;;;;;;;;;5016315;28;20432;-88
2022/06/16 13:51:55;;;;;;;0.00;0.00;;;;;;;;;;4999833;28;20052;-88
2022/06/16 13:54:29;;;;;;;0.00;0.00;;;;;;;;;;5016303;28;20521;-88
2022/06/16 13:56:55;;;;;;;0.00;0.00;;;;;;;;;;5016380;28;20480;-90
2022/06/16 13:59:27;;;;;;;0.00;0.00;;;;;;;;;;5016379;28;20200;-85
2022/06/16 14:02:01;;;;;;;0.00;0.00;;;;;;;;;;5033268;28;20121;-89
2022/06/16 14:04:28;;;;;;;0.00;0.00;;;;;;;;;;5016086;28;20467;-91
2022/06/16 14:07:08;;;;;;;0.00;0.00;;;;;;;;;;5016749;28;20037;-90
2022/06/16 14:09:36;;;;;;;0.00;0.00;;;;;;;;;;5016950;28;20076;-90
2022/06/16 14:12:05;;;;;;;0.00;0.00;;;;;;;;;;5016713;28;20037;-89
2022/06/16 14:14:51;;;;;;;0.00;0.00;;;;;;;;;;5015580;28;20376;-88
2022/06/16 14:17:27;;;;;;;0.00;0.00;;;;;;;;;;4999455;28;20045;-88
2022/06/16 14:19:52;;;;;;;;;;;;;;;;;;5016557;28;20496;-87
2022/06/16 14:22:19;;;;;;;0.00;0.00;;;;;;;;;;5015531;28;19917;-86
2022/06/16 14:24:57;;;;;;;0.00;0.00;;;;;;;;;;5015521;28;20068;-85
2022/06/16 14:27:30;;;;;;;0.00;0.00;;;;;;;;;;5015443;28;20049;-85
2022/06/16 14:29:57;;;;;;;0.00;0.00;;;;;;;;;;5015868;28;20504;-86
2022/06/16 14:32:25;;;;;;;0.00;0.00;;;;;;;;;;4998587;28;20500;-85
2022/06/16 14:34:57;;;;;;;0.00;0.00;;;;;;;;;;5031664;28;20051;-85
2022/06/16 14:37:34;;;;;;;0.00;0.00;;;;;;;;;;5015394;28;20068;-86
2022/06/16 14:40:06;;;;;;;0.00;0.00;;;;;;;;;;5016224;28;20447;-86
2022/06/16 14:42:34;;;;;;;0.00;0.00;;;;;;;;;;5015233;28;20037;-86
2022/06/16 14:45:04;;;;;;;0.00;0.00;;;;;;;;;;5015240;28;20038;-85
2022/06/16 14:47:31;;;;;;;0.00;0.00;;;;;;;;;;4999321;28;20037;-85
2022/06/16 14:50:30;;;;;;;0.00;0.00;;;;;;;;;;4998528;28;20504;-85
2022/06/16 14:52:59;;;;;;;0.00;0.00;;;;;;;;;;4962471;28;20068;-86
2022/06/16 14:55:32;;;;;;;0.00;0.00;;;;;;;;;;5015133;28;20048;-86
2022/06/16 14:58:02;;;;;;;0.00;0.00;;;;;;;;;;5015025;28;20135;-85
2022/06/16 15:00:30;;;;;;;0.00;0.00;;;;;;;;;;5015224;28;20045;-85
2022/06/16 15:03:05;;;;;;;0.00;0.00;;;;;;;;;;5014960;28;20081;-86
2022/06/16 15:05:34;;;;;;;0.00;0.00;;;;;;;;;;5014909;28;20045;-86
2022/06/16 15:08:00;;;;;;;0.00;0.00;;;;;;;;;;5015110;28;20426;-84
2022/06/16 15:10:29;;;;;;;0.00;0.00;;;;;;;;;;5015236;28;20137;-85
2022/06/16 15:12:58;;;;;;;0.00;0.00;;;;;;;;;;4998412;28;20041;-85
2022/06/16 15:15:26;;;;;;;0.00;0.00;;;;;;;;;;5011447;28;20054;-85
2022/06/16 15:18:11;;;;;;;0.00;0.00;;;;;;;;;;5011450;28;20112;-85
2022/06/16 15:20:39;;;;;;;0.00;0.00;;;;;;;;;;5012069;28;20125;-85
2022/06/16 15:23:07;;;;;;;0.00;0.00;;;;;;;;;;4995137;28;20038;-85